createdAt,value
2023-01-29T00:00:30.071Z,102235.16
2023-01-29T00:03:01.058Z,102226.56
2023-01-29T00:05:30.346Z,102224.22
2023-01-29T00:07:59.473Z,102229.25
2023-01-29T00:10:33.849Z,102227.56
2023-01-29T00:13:02.287Z,102227.47
2023-01-29T00:15:30.936Z,102230.13
2023-01-29T00:18:02.315Z,102222.22
2023-01-29T00:20:30.372Z,102229.84
2023-01-29T00:22:59.708Z,102229.84
2023-01-29T00:25:32.903Z,102229.22
2023-01-29T00:28:01.970Z,102225.56
2023-01-29T00:30:34.415Z,102229.03
2023-01-29T00:33:02.281Z,102232.59
2023-01-29T00:35:31.577Z,102223.09
2023-01-29T00:37:59.940Z,102219.41
2023-01-29T00:40:49.389Z,102211.03
2023-01-29T00:43:36.778Z,102204.22
2023-01-29T00:46:06.507Z,102202.28
2023-01-29T00:48:35.788Z,102196.84
2023-01-29T00:51:04.856Z,102200.38
2023-01-29T00:53:33.574Z,102194.19
2023-01-29T00:56:03.313Z,102196.84
2023-01-29T00:58:34.525Z,102186.41
2023-01-29T01:01:03.581Z,102195.25
2023-01-29T01:03:35.354Z,102193.63
2023-01-29T01:06:07.945Z,102194.34
2023-01-29T01:08:53.977Z,102200.09
2023-01-29T01:11:25.715Z,102198.53
2023-01-29T01:13:55.268Z,102201.63
2023-01-29T01:16:27.637Z,102192.28
2023-01-29T01:18:56.755Z,102194.97
2023-01-29T01:21:25.611Z,102192.28
2023-01-29T01:23:53.682Z,102186.69
2023-01-29T01:26:21.825Z,102196.13
2023-01-29T01:28:51.961Z,102206.69
2023-01-29T01:31:22.220Z,102207.66
2023-01-29T01:33:51.753Z,102198.09
2023-01-29T01:36:23.184Z,102191.97
2023-01-29T01:38:51.115Z,102190.69
2023-01-29T01:41:23.155Z,102197.63
2023-01-29T01:43:54.681Z,102192.72
2023-01-29T01:46:23.965Z,102193.56
2023-01-29T01:48:54.495Z,102192.06
2023-01-29T01:51:23.608Z,102193.97
2023-01-29T01:53:53.985Z,102203.63
2023-01-29T01:56:26.070Z,102204.38
2023-01-29T01:58:58.983Z,102198.50
2023-01-29T02:01:29.042Z,102182.31
2023-01-29T02:04:19.215Z,102180.00
2023-01-29T02:07:05.386Z,102174.28
2023-01-29T02:09:37.361Z,102174.53
2023-01-29T02:12:08.704Z,102170.09
2023-01-29T02:14:41.308Z,102175.09
2023-01-29T02:17:12.713Z,102170.09
2023-01-29T02:19:48.574Z,102173.78
2023-01-29T02:22:43.665Z,102172.81
2023-01-29T02:25:29.441Z,102170.78
2023-01-29T02:28:08.550Z,102160.91
2023-01-29T02:30:41.528Z,102162.13
2023-01-29T02:33:15.871Z,102161.13
2023-01-29T02:35:46.493Z,102154.88
2023-01-29T02:38:21.277Z,102169.88
2023-01-29T02:40:54.360Z,102164.00
2023-01-29T02:43:29.810Z,102167.94
2023-01-29T02:46:04.943Z,102168.25
2023-01-29T02:48:43.079Z,102163.47
2023-01-29T02:51:18.437Z,102157.28
2023-01-29T02:53:53.824Z,102160.22
2023-01-29T02:56:28.467Z,102155.84
2023-01-29T02:59:01.338Z,102150.72
2023-01-29T03:01:33.045Z,102143.97
2023-01-29T03:04:07.504Z,102147.63
2023-01-29T03:06:40.126Z,102148.28
2023-01-29T03:09:12.599Z,102148.38
2023-01-29T03:11:44.174Z,102147.31
2023-01-29T03:14:18.078Z,102149.16
2023-01-29T03:16:52.755Z,102143.72
2023-01-29T03:19:27.643Z,102141.28
2023-01-29T03:22:00.210Z,102143.69
2023-01-29T03:24:54.400Z,102138.50
2023-01-29T03:27:45.657Z,102148.63
2023-01-29T03:30:35.675Z,102132.53
2023-01-29T03:33:36.683Z,102137.59
2023-01-29T03:36:08.935Z,102132.09
2023-01-29T03:38:38.144Z,102120.69
2023-01-29T03:41:10.458Z,102105.91
2023-01-29T03:43:42.682Z,102119.28
2023-01-29T03:46:20.027Z,102105.94
2023-01-29T03:48:58.388Z,102103.28
2023-01-29T03:51:31.072Z,102097.31
2023-01-29T03:54:06.106Z,102093.66
2023-01-29T03:56:41.100Z,102088.38
2023-01-29T03:59:18.471Z,102087.28
2023-01-29T04:02:31.851Z,102081.22
2023-01-29T04:05:08.127Z,102068.44
2023-01-29T04:07:46.027Z,102064.03
2023-01-29T04:10:18.654Z,102058.16
2023-01-29T04:12:51.078Z,102057.28
2023-01-29T04:15:24.396Z,102049.94
2023-01-29T04:18:01.127Z,102040.44
2023-01-29T04:20:44.294Z,102038.19
2023-01-29T04:23:22.000Z,102039.72
2023-01-29T04:26:00.047Z,102040.53
2023-01-29T04:28:41.813Z,102040.63
2023-01-29T04:31:13.729Z,102037.91
2023-01-29T04:33:46.676Z,102029.38
2023-01-29T04:36:27.565Z,102021.75
2023-01-29T04:39:05.416Z,102016.69
2023-01-29T04:41:37.495Z,102019.78
2023-01-29T04:44:12.174Z,102028.25
2023-01-29T04:46:49.945Z,102029.09
2023-01-29T04:49:29.189Z,102033.59
2023-01-29T04:52:01.847Z,102030.00
2023-01-29T04:54:39.356Z,102037.00
2023-01-29T04:57:11.685Z,102035.94
2023-01-29T04:59:46.006Z,102034.88
2023-01-29T05:02:15.481Z,102034.44
2023-01-29T05:04:48.297Z,102040.69
2023-01-29T05:07:22.101Z,102035.41
2023-01-29T05:09:51.854Z,102033.19
2023-01-29T05:12:20.516Z,102035.97
2023-01-29T05:14:49.420Z,102036.78
2023-01-29T05:17:19.692Z,102040.22
2023-01-29T05:19:49.627Z,102041.25
2023-01-29T05:22:22.751Z,102041.16
2023-01-29T05:24:52.201Z,102037.75
2023-01-29T05:27:41.270Z,102045.84
2023-01-29T05:30:11.674Z,102035.19
2023-01-29T05:32:44.490Z,102042.13
2023-01-29T05:35:15.146Z,102038.59
2023-01-29T05:37:43.208Z,102047.47
2023-01-29T05:40:12.770Z,102039.03
2023-01-29T05:42:40.824Z,102034.38
2023-01-29T05:45:11.376Z,102044.00
2023-01-29T05:47:39.830Z,102042.34
2023-01-29T05:50:10.157Z,102044.91
2023-01-29T05:52:41.212Z,102048.38
2023-01-29T05:55:11.071Z,102051.78
2023-01-29T05:57:40.560Z,102045.47
2023-01-29T06:00:10.718Z,102046.09
2023-01-29T06:02:41.847Z,102052.44
2023-01-29T06:05:11.879Z,102054.84
2023-01-29T06:07:45.541Z,102052.97
2023-01-29T06:10:15.742Z,102059.91
2023-01-29T06:12:45.841Z,102072.75
2023-01-29T06:15:15.444Z,102070.19
2023-01-29T06:17:45.504Z,102069.41
2023-01-29T06:20:15.900Z,102073.94
2023-01-29T06:22:45.764Z,102068.44
2023-01-29T06:25:14.725Z,102070.19
2023-01-29T06:27:43.652Z,102063.22
2023-01-29T06:30:12.811Z,102047.38
2023-01-29T06:32:41.200Z,102051.75
2023-01-29T06:35:11.425Z,102057.69
2023-01-29T06:37:39.526Z,102056.88
2023-01-29T06:40:13.129Z,102056.81
2023-01-29T06:42:41.646Z,102056.66
2023-01-29T06:45:11.873Z,102049.78
2023-01-29T06:47:41.453Z,102062.00
2023-01-29T06:50:10.980Z,102062.00
2023-01-29T06:52:40.360Z,102062.84
2023-01-29T06:55:11.174Z,102072.28
2023-01-29T06:57:40.660Z,102066.22
2023-01-29T07:00:13.445Z,102062.97
2023-01-29T07:02:41.883Z,102069.91
2023-01-29T07:05:11.595Z,102066.59
2023-01-29T07:07:39.756Z,102063.06
2023-01-29T07:10:13.627Z,102058.59
2023-01-29T07:12:42.320Z,102061.03
2023-01-29T07:15:13.042Z,102048.88
2023-01-29T07:17:42.384Z,102056.31
2023-01-29T07:20:13.207Z,102045.44
2023-01-29T07:22:41.245Z,102040.97
2023-01-29T07:25:12.832Z,102044.59
2023-01-29T07:27:40.839Z,102053.25
2023-01-29T07:30:12.635Z,102066.38
2023-01-29T07:32:40.731Z,102059.44
2023-01-29T07:35:11.654Z,102065.97
2023-01-29T07:37:40.755Z,102064.44
2023-01-29T07:40:15.658Z,102056.53
2023-01-29T07:42:44.559Z,102039.81
2023-01-29T07:45:13.350Z,102032.81
2023-01-29T07:47:41.813Z,102041.94
2023-01-29T07:50:10.953Z,102042.66
2023-01-29T07:52:39.034Z,102030.19
2023-01-29T07:55:08.558Z,102008.56
2023-01-29T07:57:38.269Z,102012.78
2023-01-29T08:00:08.435Z,102020.69
2023-01-29T08:02:40.579Z,102022.09
2023-01-29T08:05:09.771Z,102032.75
2023-01-29T08:07:38.633Z,102010.13
2023-01-29T08:10:07.750Z,102010.06
2023-01-29T08:12:37.165Z,102006.72
2023-01-29T08:15:07.732Z,102004.09
2023-01-29T08:17:52.492Z,102016.03
2023-01-29T08:20:26.365Z,102027.47
2023-01-29T08:23:00.803Z,102018.75
2023-01-29T08:25:31.123Z,102013.41
2023-01-29T08:28:00.848Z,102003.69
2023-01-29T08:30:31.042Z,102010.56
2023-01-29T08:33:03.318Z,102015.84
2023-01-29T08:35:32.320Z,102009.75
2023-01-29T08:38:03.384Z,102006.03
2023-01-29T08:40:33.105Z,102007.50
2023-01-29T08:43:06.131Z,102009.38
2023-01-29T08:45:37.779Z,102007.09
2023-01-29T08:48:06.899Z,102011.34
2023-01-29T08:50:35.554Z,102005.31
2023-01-29T08:53:08.568Z,102011.88
2023-01-29T08:55:38.330Z,102002.16
2023-01-29T08:58:08.798Z,102011.81
2023-01-29T09:00:36.998Z,101991.69
2023-01-29T09:03:07.689Z,102000.44
2023-01-29T09:05:37.020Z,101996.66
2023-01-29T09:08:05.709Z,101996.59
2023-01-29T09:10:34.086Z,101994.03
2023-01-29T09:13:05.177Z,101995.00
2023-01-29T09:15:34.840Z,101998.50
2023-01-29T09:18:05.943Z,102001.34
2023-01-29T09:20:35.297Z,101992.63
2023-01-29T09:23:06.549Z,101993.59
2023-01-29T09:25:34.666Z,101997.78
2023-01-29T09:28:06.213Z,101999.41
2023-01-29T09:30:38.020Z,101999.84
2023-01-29T09:33:07.376Z,101992.09
2023-01-29T09:35:35.929Z,101990.19
2023-01-29T09:38:04.318Z,101987.66
2023-01-29T09:40:37.106Z,101984.31
2023-01-29T09:43:08.467Z,101986.78
2023-01-29T09:45:40.479Z,101978.84
2023-01-29T09:48:14.825Z,101971.06
2023-01-29T09:50:45.721Z,101971.22
2023-01-29T09:53:19.825Z,101959.16
2023-01-29T09:55:53.267Z,101961.44
2023-01-29T09:58:28.386Z,101950.03
2023-01-29T10:01:11.436Z,101949.97
2023-01-29T10:03:56.406Z,101943.25
2023-01-29T10:06:33.416Z,101952.88
2023-01-29T10:09:16.106Z,101943.97
2023-01-29T10:11:48.060Z,101935.41
2023-01-29T10:14:24.192Z,101930.38
2023-01-29T10:17:04.222Z,101931.53
2023-01-29T10:19:52.317Z,101921.31
2023-01-29T10:22:42.429Z,101924.53
2023-01-29T10:25:14.822Z,101933.44
2023-01-29T10:27:48.836Z,101932.78
2023-01-29T10:30:25.571Z,101933.47
2023-01-29T10:32:56.075Z,101934.22
2023-01-29T10:35:26.847Z,101938.53
2023-01-29T10:37:56.115Z,101934.97
2023-01-29T10:40:34.726Z,101933.25
2023-01-29T10:43:07.525Z,101922.75
2023-01-29T10:45:43.432Z,101913.56
2023-01-29T10:48:35.925Z,101918.81
2023-01-29T10:51:14.776Z,101910.00
2023-01-29T10:53:54.984Z,101897.69
2023-01-29T10:56:37.203Z,101904.69
2023-01-29T10:59:08.271Z,101901.53
2023-01-29T11:01:37.400Z,101883.16
2023-01-29T11:04:08.876Z,101877.56
2023-01-29T11:06:38.203Z,101870.63
2023-01-29T11:09:10.073Z,101872.75
2023-01-29T11:11:42.268Z,101880.53
2023-01-29T11:14:13.992Z,101870.09
2023-01-29T11:16:43.467Z,101870.91
2023-01-29T11:19:12.872Z,101863.94
2023-01-29T11:21:54.477Z,101859.78
2023-01-29T11:24:23.434Z,101852.63
2023-01-29T11:26:52.056Z,101848.38
2023-01-29T11:29:36.094Z,101848.75
2023-01-29T11:32:06.829Z,101845.50
2023-01-29T11:34:36.579Z,101845.44
2023-01-29T11:37:06.986Z,101848.44
2023-01-29T11:39:35.524Z,101834.22
2023-01-29T11:42:05.359Z,101828.72
2023-01-29T11:44:37.500Z,101826.75
2023-01-29T11:47:20.694Z,101822.59
2023-01-29T11:49:54.252Z,101817.63
2023-01-29T11:52:26.132Z,101825.13
2023-01-29T11:54:58.324Z,101815.31
2023-01-29T11:57:30.843Z,101812.59
2023-01-29T12:00:01.463Z,101808.13
2023-01-29T12:02:38.782Z,101814.22
2023-01-29T12:05:19.262Z,101812.13
2023-01-29T12:07:49.735Z,101806.34
2023-01-29T12:10:35.440Z,101801.41
2023-01-29T12:13:08.357Z,101782.09
2023-01-29T12:15:37.860Z,101773.03
2023-01-29T12:18:13.610Z,101772.97
2023-01-29T12:20:46.596Z,101766.59
2023-01-29T12:23:26.707Z,101769.25
2023-01-29T12:26:01.650Z,101773.72
2023-01-29T12:28:40.374Z,101763.19
2023-01-29T12:31:25.461Z,101762.59
2023-01-29T12:33:57.111Z,101758.59
2023-01-29T12:36:30.208Z,101762.00
2023-01-29T12:38:59.063Z,101740.66
2023-01-29T12:41:35.029Z,101730.66
2023-01-29T12:44:08.576Z,101733.38
2023-01-29T12:46:41.121Z,101727.06
2023-01-29T12:49:14.564Z,101742.38
2023-01-29T12:51:52.478Z,101732.63
2023-01-29T12:54:27.093Z,101736.59
2023-01-29T12:56:59.868Z,101737.53
2023-01-29T12:59:31.087Z,101744.22
2023-01-29T13:02:02.030Z,101739.06
2023-01-29T13:04:40.861Z,101746.69
2023-01-29T13:07:14.291Z,101748.38
2023-01-29T13:09:47.537Z,101733.13
2023-01-29T13:12:20.315Z,101734.91
2023-01-29T13:14:53.091Z,101732.03
2023-01-29T13:17:26.585Z,101725.31
2023-01-29T13:20:00.537Z,101712.56
2023-01-29T13:22:33.265Z,101723.81
2023-01-29T13:25:05.396Z,101714.03
2023-01-29T13:27:36.030Z,101711.94
2023-01-29T13:30:07.777Z,101705.75
2023-01-29T13:32:41.100Z,101706.97
2023-01-29T13:35:18.421Z,101715.16
2023-01-29T13:37:51.628Z,101702.78
2023-01-29T13:40:25.478Z,101704.50
2023-01-29T13:42:54.482Z,101708.13
2023-01-29T13:45:26.717Z,101701.72
2023-01-29T13:47:55.816Z,101696.25
2023-01-29T13:50:37.079Z,101696.25
2023-01-29T13:53:11.964Z,101708.06
2023-01-29T13:55:42.671Z,101710.53
2023-01-29T13:58:15.659Z,101706.63
2023-01-29T14:00:53.019Z,101699.84
2023-01-29T14:04:03.325Z,101705.59
2023-01-29T14:06:49.651Z,101699.91
2023-01-29T14:09:51.289Z,101689.09
2023-01-29T14:12:45.833Z,101689.09
2023-01-29T14:15:23.107Z,101686.31
2023-01-29T14:18:05.677Z,101689.50
2023-01-29T14:20:47.055Z,101679.19
2023-01-29T14:23:44.461Z,101685.53
2023-01-29T14:26:24.064Z,101681.97
2023-01-29T14:29:00.046Z,101679.06
2023-01-29T14:31:45.162Z,101685.69
2023-01-29T14:34:20.463Z,101685.00
2023-01-29T14:36:55.264Z,101680.13
2023-01-29T14:39:36.122Z,101673.94
2023-01-29T14:42:17.165Z,101677.19
2023-01-29T14:45:06.978Z,101672.94
2023-01-29T14:48:02.435Z,101668.94
2023-01-29T14:50:50.825Z,101663.78
2023-01-29T14:53:26.637Z,101667.84
2023-01-29T14:55:59.052Z,101657.66
2023-01-29T14:58:38.937Z,101657.81
2023-01-29T15:01:18.186Z,101650.94
2023-01-29T15:03:49.926Z,101649.44
2023-01-29T15:06:22.265Z,101657.41
2023-01-29T15:08:56.438Z,101651.72
2023-01-29T15:11:37.501Z,101651.56
2023-01-29T15:14:16.851Z,101648.84
2023-01-29T15:16:53.737Z,101644.66
2023-01-29T15:19:26.269Z,101642.91
2023-01-29T15:22:06.878Z,101640.34
2023-01-29T15:24:35.227Z,101638.38
2023-01-29T15:27:07.183Z,101632.84
2023-01-29T15:29:37.884Z,101625.81
2023-01-29T15:32:08.028Z,101618.88
2023-01-29T15:34:37.628Z,101619.97
2023-01-29T15:37:09.806Z,101617.03
2023-01-29T15:39:44.240Z,101609.31
2023-01-29T15:42:23.452Z,101611.00
2023-01-29T15:44:55.572Z,101602.31
2023-01-29T15:47:27.936Z,101614.47
2023-01-29T15:49:57.556Z,101608.88
2023-01-29T15:52:30.293Z,101601.88
2023-01-29T15:55:07.744Z,101605.00
2023-01-29T15:57:40.491Z,101596.13
2023-01-29T16:00:23.914Z,101593.13
2023-01-29T16:02:53.548Z,101586.88
2023-01-29T16:05:25.236Z,101586.03
2023-01-29T16:07:56.112Z,101579.72
2023-01-29T16:10:25.926Z,101591.13
2023-01-29T16:12:55.124Z,101573.47
2023-01-29T16:15:33.959Z,101577.25
2023-01-29T16:18:05.749Z,101573.63
2023-01-29T16:20:42.521Z,101577.41
2023-01-29T16:23:20.896Z,101575.31
2023-01-29T16:25:52.164Z,101573.19
2023-01-29T16:28:20.662Z,101566.94
2023-01-29T16:30:56.466Z,101573.47
2023-01-29T16:33:29.734Z,101571.47
2023-01-29T16:35:58.181Z,101568.63
2023-01-29T16:38:29.758Z,101576.41
2023-01-29T16:41:10.088Z,101575.38
2023-01-29T16:43:51.620Z,101575.31
2023-01-29T16:46:32.950Z,101567.00
2023-01-29T16:49:02.287Z,101564.22
2023-01-29T16:51:31.268Z,101563.16
2023-01-29T16:54:03.294Z,101565.16
2023-01-29T16:56:34.404Z,101561.00
2023-01-29T16:59:04.550Z,101560.34
2023-01-29T17:01:35.912Z,101564.75
2023-01-29T17:04:11.887Z,101556.59
2023-01-29T17:06:41.468Z,101567.13
2023-01-29T17:09:09.964Z,101553.41
2023-01-29T17:11:38.976Z,101553.25
2023-01-29T17:14:08.629Z,101541.63
2023-01-29T17:16:50.372Z,101538.38
2023-01-29T17:19:21.945Z,101542.66
2023-01-29T17:21:49.913Z,101534.63
2023-01-29T17:24:18.172Z,101530.31
2023-01-29T17:26:49.358Z,101529.59
2023-01-29T17:29:21.725Z,101535.47
2023-01-29T17:31:51.746Z,101526.44
2023-01-29T17:34:20.085Z,101527.75
2023-01-29T17:36:49.302Z,101528.19
2023-01-29T17:39:19.766Z,101520.34
2023-01-29T17:41:50.838Z,101518.50
2023-01-29T17:44:19.455Z,101516.72
2023-01-29T17:46:47.693Z,101509.47
2023-01-29T17:49:24.035Z,101496.97
2023-01-29T17:51:53.129Z,101489.50
2023-01-29T17:54:21.878Z,101491.50
2023-01-29T17:56:53.197Z,101486.72
2023-01-29T17:59:23.318Z,101476.63
2023-01-29T18:01:53.509Z,101473.41
2023-01-29T18:04:23.214Z,101470.28
2023-01-29T18:06:53.415Z,101469.53
2023-01-29T18:09:24.640Z,101456.75
2023-01-29T18:11:53.606Z,101455.41
2023-01-29T18:14:22.055Z,101445.00
2023-01-29T18:16:50.442Z,101456.56
2023-01-29T18:19:28.127Z,101442.88
2023-01-29T18:21:56.500Z,101440.53
2023-01-29T18:24:26.565Z,101436.63
2023-01-29T18:26:57.277Z,101442.47
2023-01-29T18:29:29.955Z,101434.06
2023-01-29T18:31:58.423Z,101442.94
2023-01-29T18:34:29.820Z,101436.91
2023-01-29T18:37:00.952Z,101432.75
2023-01-29T18:39:29.689Z,101436.13
2023-01-29T18:41:57.820Z,101424.69
2023-01-29T18:44:25.758Z,101423.88
2023-01-29T18:46:53.937Z,101424.81
2023-01-29T18:49:22.246Z,101417.94
2023-01-29T18:51:51.965Z,101420.34
2023-01-29T18:54:21.626Z,101422.09
2023-01-29T18:57:06.213Z,101424.03
2023-01-29T18:59:41.247Z,101426.38
2023-01-29T19:02:11.835Z,101415.47
2023-01-29T19:04:40.110Z,101411.84
2023-01-29T19:07:11.414Z,101406.59
2023-01-29T19:09:40.392Z,101398.81
2023-01-29T19:12:10.253Z,101398.50
2023-01-29T19:14:38.888Z,101400.00
2023-01-29T19:17:07.262Z,101389.34
2023-01-29T19:19:35.637Z,101386.41
2023-01-29T19:22:03.609Z,101379.88
2023-01-29T19:24:39.026Z,101378.56
2023-01-29T19:27:08.850Z,101378.97
2023-01-29T19:29:38.008Z,101366.38
2023-01-29T19:32:06.308Z,101361.91
2023-01-29T19:34:34.622Z,101361.59
2023-01-29T19:37:04.020Z,101353.59
2023-01-29T19:39:34.074Z,101352.09
2023-01-29T19:42:02.810Z,101353.78
2023-01-29T19:44:30.877Z,101346.69
2023-01-29T19:47:01.217Z,101339.59
2023-01-29T19:49:30.606Z,101334.34
2023-01-29T19:51:59.199Z,101322.94
2023-01-29T19:54:29.457Z,101318.13
2023-01-29T19:56:59.661Z,101320.75
2023-01-29T19:59:28.450Z,101326.59
2023-01-29T20:01:56.938Z,101321.19
2023-01-29T20:04:27.504Z,101312.56
2023-01-29T20:06:56.953Z,101319.50
2023-01-29T20:09:25.338Z,101309.09
2023-01-29T20:11:54.078Z,101301.25
2023-01-29T20:14:24.010Z,101303.78
2023-01-29T20:16:54.681Z,101295.06
2023-01-29T20:19:27.172Z,101291.59
2023-01-29T20:21:55.111Z,101285.16
2023-01-29T20:24:24.735Z,101286.28
2023-01-29T20:26:52.997Z,101274.94
2023-01-29T20:29:21.435Z,101272.31
2023-01-29T20:31:51.206Z,101267.25
2023-01-29T20:34:19.510Z,101269.78
2023-01-29T20:36:47.750Z,101261.31
2023-01-29T20:39:16.075Z,101257.84
2023-01-29T20:41:44.640Z,101248.13
2023-01-29T20:44:12.992Z,101248.28
2023-01-29T20:46:42.388Z,101247.09
2023-01-29T20:49:12.296Z,101234.94
2023-01-29T20:51:43.210Z,101236.69
2023-01-29T20:54:15.286Z,101230.69
2023-01-29T20:56:46.673Z,101225.28
2023-01-29T20:59:17.993Z,101219.78
2023-01-29T21:01:49.156Z,101218.94
2023-01-29T21:04:18.665Z,101211.84
2023-01-29T21:06:49.976Z,101196.78
2023-01-29T21:09:18.310Z,101194.44
2023-01-29T21:11:47.293Z,101184.28
2023-01-29T21:14:15.466Z,101182.25
2023-01-29T21:16:43.616Z,101168.66
2023-01-29T21:19:15.998Z,101166.78
2023-01-29T21:21:45.462Z,101164.09
2023-01-29T21:24:15.103Z,101172.63
2023-01-29T21:26:43.168Z,101163.06
2023-01-29T21:29:12.081Z,101156.56
2023-01-29T21:31:41.664Z,101156.81
2023-01-29T21:34:13.077Z,101146.25
2023-01-29T21:36:44.460Z,101142.09
2023-01-29T21:39:20.999Z,101133.13
2023-01-29T21:42:14.279Z,101135.94
2023-01-29T21:44:45.794Z,101112.84
2023-01-29T21:47:14.767Z,101117.00
2023-01-29T21:49:45.071Z,101112.53
2023-01-29T21:52:14.931Z,101115.81
2023-01-29T21:54:48.975Z,101109.66
2023-01-29T21:57:17.839Z,101106.72
2023-01-29T21:59:47.733Z,101097.81
2023-01-29T22:02:21.155Z,101099.00
2023-01-29T22:04:50.474Z,101099.16
2023-01-29T22:07:18.387Z,101103.91
2023-01-29T22:09:48.290Z,101092.69
2023-01-29T22:12:16.699Z,101084.06
2023-01-29T22:14:46.164Z,101092.06
2023-01-29T22:17:14.761Z,101080.75
2023-01-29T22:19:43.063Z,101080.75
2023-01-29T22:22:14.495Z,101073.13
2023-01-29T22:24:44.684Z,101067.91
2023-01-29T22:27:14.422Z,101057.06
2023-01-29T22:29:42.606Z,101055.38
2023-01-29T22:32:11.564Z,101048.22
2023-01-29T22:34:39.708Z,101038.81
2023-01-29T22:37:08.277Z,101035.72
2023-01-29T22:39:36.504Z,101037.13
2023-01-29T22:42:05.151Z,101019.91
2023-01-29T22:44:34.498Z,101036.66
2023-01-29T22:47:02.687Z,101033.28
2023-01-29T22:49:31.528Z,101010.19
2023-01-29T22:52:16.067Z,101011.19
2023-01-29T22:54:45.479Z,101002.69
2023-01-29T22:57:15.131Z,100995.41
2023-01-29T22:59:46.757Z,100986.00
2023-01-29T23:02:15.221Z,100980.75
2023-01-29T23:04:44.284Z,100970.47
2023-01-29T23:07:14.777Z,100964.63
2023-01-29T23:09:42.855Z,100966.41
2023-01-29T23:12:10.829Z,100967.25
2023-01-29T23:14:39.466Z,100966.50
2023-01-29T23:17:09.161Z,100955.34
2023-01-29T23:19:37.922Z,100947.59
2023-01-29T23:22:06.072Z,100944.38
2023-01-29T23:24:34.453Z,100930.00
2023-01-29T23:27:17.509Z,100932.03
2023-01-29T23:29:47.824Z,100929.44
2023-01-29T23:32:21.314Z,100923.06
2023-01-29T23:34:50.563Z,100927.38
2023-01-29T23:37:18.901Z,100919.59
2023-01-29T23:39:47.144Z,100914.38
2023-01-29T23:42:15.137Z,100906.59
2023-01-29T23:44:43.348Z,100903.44
2023-01-29T23:47:14.152Z,100890.78
2023-01-29T23:49:43.981Z,100896.88
2023-01-29T23:52:12.276Z,100884.81
2023-01-29T23:54:40.379Z,100885.38
2023-01-29T23:57:08.602Z,100890.50
2023-01-29T23:59:36.801Z,100890.59
